sensor_id;sensor_type;location;lat;lon;timestamp;P1;durP1;ratioP1;P2;durP2;ratioP2
30892;SDS011;17595;50.884;4.346;2023-04-10T00:00:31;11.52;;;7.88;;
30892;SDS011;17595;50.884;4.346;2023-04-10T00:02:57;10.98;;;7.97;;
30892;SDS011;17595;50.884;4.346;2023-04-10T00:05:25;10.25;;;7.30;;
30892;SDS011;17595;50.884;4.346;2023-04-10T00:07:51;7.32;;;6.57;;
30892;SDS011;17595;50.884;4.346;2023-04-10T00:10:17;9.38;;;6.60;;
30892;SDS011;17595;50.884;4.346;2023-04-10T00:12:43;11.07;;;6.60;;
30892;SDS011;17595;50.884;4.346;2023-04-10T00:15:09;7.40;;;5.90;;
30892;SDS011;17595;50.884;4.346;2023-04-10T00:17:35;9.32;;;6.25;;
30892;SDS011;17595;50.884;4.346;2023-04-10T00:20:00;8.00;;;6.95;;
30892;SDS011;17595;50.884;4.346;2023-04-10T00:22:26;6.53;;;5.65;;
30892;SDS011;17595;50.884;4.346;2023-04-10T00:24:52;8.52;;;6.15;;
30892;SDS011;17595;50.884;4.346;2023-04-10T00:27:17;7.93;;;6.25;;
30892;SDS011;17595;50.884;4.346;2023-04-10T00:29:43;11.00;;;6.47;;
30892;SDS011;17595;50.884;4.346;2023-04-10T00:32:08;8.23;;;6.65;;
30892;SDS011;17595;50.884;4.346;2023-04-10T00:34:34;12.43;;;6.88;;
30892;SDS011;17595;50.884;4.346;2023-04-10T00:37:00;11.50;;;6.90;;
30892;SDS011;17595;50.884;4.346;2023-04-10T00:39:25;10.27;;;7.60;;
30892;SDS011;17595;50.884;4.346;2023-04-10T00:41:51;10.02;;;7.13;;
30892;SDS011;17595;50.884;4.346;2023-04-10T00:44:16;10.73;;;7.30;;
30892;SDS011;17595;50.884;4.346;2023-04-10T00:46:42;10.00;;;7.18;;
30892;SDS011;17595;50.884;4.346;2023-04-10T00:49:08;8.10;;;6.70;;
30892;SDS011;17595;50.884;4.346;2023-04-10T00:51:33;9.90;;;7.35;;
30892;SDS011;17595;50.884;4.346;2023-04-10T00:54:01;9.75;;;6.85;;
30892;SDS011;17595;50.884;4.346;2023-04-10T00:56:29;8.43;;;6.53;;
30892;SDS011;17595;50.884;4.346;2023-04-10T00:58:57;9.05;;;6.60;;
30892;SDS011;17595;50.884;4.346;2023-04-10T01:01:23;7.95;;;6.32;;
30892;SDS011;17595;50.884;4.346;2023-04-10T01:03:49;9.73;;;6.82;;
30892;SDS011;17595;50.884;4.346;2023-04-10T01:17:15;8.27;;;6.82;;
30892;SDS011;17595;50.884;4.346;2023-04-10T01:25:37;8.75;;;6.60;;
30892;SDS011;17595;50.884;4.346;2023-04-10T01:30:43;9.23;;;7.07;;
30892;SDS011;17595;50.884;4.346;2023-04-10T01:33:11;8.43;;;5.95;;
30892;SDS011;17595;50.884;4.346;2023-04-10T01:35:42;8.02;;;6.68;;
30892;SDS011;17595;50.884;4.346;2023-04-10T01:38:10;9.82;;;6.63;;
30892;SDS011;17595;50.884;4.346;2023-04-10T01:40:37;8.75;;;5.95;;
30892;SDS011;17595;50.884;4.346;2023-04-10T01:43:05;8.68;;;6.10;;
30892;SDS011;17595;50.884;4.346;2023-04-10T01:45:33;7.45;;;5.88;;
30892;SDS011;17595;50.884;4.346;2023-04-10T01:48:00;7.30;;;5.95;;
30892;SDS011;17595;50.884;4.346;2023-04-10T01:50:26;7.30;;;5.72;;
30892;SDS011;17595;50.884;4.346;2023-04-10T01:52:55;6.40;;;5.20;;
30892;SDS011;17595;50.884;4.346;2023-04-10T01:55:21;6.50;;;5.25;;
30892;SDS011;17595;50.884;4.346;2023-04-10T01:57:48;7.47;;;6.07;;
30892;SDS011;17595;50.884;4.346;2023-04-10T02:00:15;7.00;;;6.05;;
30892;SDS011;17595;50.884;4.346;2023-04-10T02:02:41;8.80;;;5.50;;
30892;SDS011;17595;50.884;4.346;2023-04-10T02:05:07;7.07;;;5.35;;
30892;SDS011;17595;50.884;4.346;2023-04-10T02:07:43;5.57;;;4.93;;
30892;SDS011;17595;50.884;4.346;2023-04-10T02:10:22;6.70;;;5.43;;
30892;SDS011;17595;50.884;4.346;2023-04-10T02:12:58;6.43;;;5.28;;
30892;SDS011;17595;50.884;4.346;2023-04-10T02:15:26;5.53;;;4.68;;
30892;SDS011;17595;50.884;4.346;2023-04-10T02:17:54;6.55;;;5.22;;
30892;SDS011;17595;50.884;4.346;2023-04-10T02:20:22;5.95;;;5.10;;
30892;SDS011;17595;50.884;4.346;2023-04-10T02:22:49;6.32;;;4.82;;
30892;SDS011;17595;50.884;4.346;2023-04-10T02:25:16;5.78;;;5.07;;
30892;SDS011;17595;50.884;4.346;2023-04-10T02:27:41;7.00;;;4.30;;
30892;SDS011;17595;50.884;4.346;2023-04-10T02:30:07;6.35;;;4.63;;
30892;SDS011;17595;50.884;4.346;2023-04-10T02:32:33;5.88;;;4.78;;
30892;SDS011;17595;50.884;4.346;2023-04-10T02:34:59;5.30;;;4.35;;
30892;SDS011;17595;50.884;4.346;2023-04-10T02:39:54;6.20;;;4.70;;
30892;SDS011;17595;50.884;4.346;2023-04-10T02:42:20;5.60;;;4.70;;
30892;SDS011;17595;50.884;4.346;2023-04-10T02:44:46;5.90;;;4.85;;
30892;SDS011;17595;50.884;4.346;2023-04-10T02:47:11;6.38;;;4.97;;
30892;SDS011;17595;50.884;4.346;2023-04-10T02:49:37;5.72;;;4.60;;
30892;SDS011;17595;50.884;4.346;2023-04-10T02:52:03;8.02;;;5.80;;
30892;SDS011;17595;50.884;4.346;2023-04-10T02:54:29;6.72;;;5.20;;
30892;SDS011;17595;50.884;4.346;2023-04-10T02:56:55;6.18;;;4.95;;
30892;SDS011;17595;50.884;4.346;2023-04-10T02:59:21;6.25;;;5.45;;
30892;SDS011;17595;50.884;4.346;2023-04-10T03:01:47;5.43;;;4.68;;
30892;SDS011;17595;50.884;4.346;2023-04-10T03:04:16;6.95;;;4.65;;
30892;SDS011;17595;50.884;4.346;2023-04-10T03:06:42;6.28;;;4.80;;
30892;SDS011;17595;50.884;4.346;2023-04-10T03:09:08;5.25;;;4.38;;
30892;SDS011;17595;50.884;4.346;2023-04-10T03:11:34;6.10;;;4.75;;
30892;SDS011;17595;50.884;4.346;2023-04-10T03:13:59;6.28;;;4.88;;
30892;SDS011;17595;50.884;4.346;2023-04-10T03:16:25;5.38;;;4.45;;
30892;SDS011;17595;50.884;4.346;2023-04-10T03:18:51;6.07;;;4.88;;
30892;SDS011;17595;50.884;4.346;2023-04-10T03:21:17;7.05;;;4.85;;
30892;SDS011;17595;50.884;4.346;2023-04-10T03:23:43;6.38;;;5.03;;
30892;SDS011;17595;50.884;4.346;2023-04-10T03:26:08;7.18;;;5.00;;
30892;SDS011;17595;50.884;4.346;2023-04-10T03:28:34;6.95;;;4.80;;
30892;SDS011;17595;50.884;4.346;2023-04-10T03:31:01;5.47;;;4.10;;
30892;SDS011;17595;50.884;4.346;2023-04-10T03:33:28;5.65;;;4.88;;
30892;SDS011;17595;50.884;4.346;2023-04-10T03:35:53;6.18;;;4.78;;
30892;SDS011;17595;50.884;4.346;2023-04-10T03:38:21;6.22;;;5.00;;
30892;SDS011;17595;50.884;4.346;2023-04-10T03:40:47;6.22;;;5.18;;
30892;SDS011;17595;50.884;4.346;2023-04-10T03:43:12;6.70;;;4.97;;
30892;SDS011;17595;50.884;4.346;2023-04-10T03:45:38;7.32;;;5.20;;
30892;SDS011;17595;50.884;4.346;2023-04-10T03:48:04;7.20;;;5.22;;
30892;SDS011;17595;50.884;4.346;2023-04-10T03:50:30;6.40;;;5.00;;
30892;SDS011;17595;50.884;4.346;2023-04-10T03:52:55;5.35;;;4.68;;
30892;SDS011;17595;50.884;4.346;2023-04-10T03:55:21;7.55;;;4.97;;
30892;SDS011;17595;50.884;4.346;2023-04-10T03:57:47;5.85;;;4.80;;
30892;SDS011;17595;50.884;4.346;2023-04-10T04:00:13;6.57;;;5.13;;
30892;SDS011;17595;50.884;4.346;2023-04-10T04:02:39;6.20;;;5.15;;
30892;SDS011;17595;50.884;4.346;2023-04-10T04:05:05;8.15;;;5.05;;
30892;SDS011;17595;50.884;4.346;2023-04-10T04:07:31;6.38;;;4.80;;
30892;SDS011;17595;50.884;4.346;2023-04-10T04:09:57;6.20;;;5.28;;
30892;SDS011;17595;50.884;4.346;2023-04-10T04:12:24;7.53;;;5.15;;
30892;SDS011;17595;50.884;4.346;2023-04-10T04:14:49;8.05;;;5.20;;
30892;SDS011;17595;50.884;4.346;2023-04-10T04:17:15;6.15;;;4.97;;
30892;SDS011;17595;50.884;4.346;2023-04-10T04:19:40;7.38;;;4.97;;
30892;SDS011;17595;50.884;4.346;2023-04-10T04:22:06;6.32;;;4.82;;
30892;SDS011;17595;50.884;4.346;2023-04-10T04:24:32;5.72;;;4.65;;
30892;SDS011;17595;50.884;4.346;2023-04-10T04:26:57;6.40;;;4.38;;
30892;SDS011;17595;50.884;4.346;2023-04-10T04:29:23;5.18;;;4.18;;
30892;SDS011;17595;50.884;4.346;2023-04-10T04:31:49;6.82;;;4.63;;
30892;SDS011;17595;50.884;4.346;2023-04-10T04:34:15;5.28;;;4.65;;
30892;SDS011;17595;50.884;4.346;2023-04-10T04:36:40;6.82;;;4.85;;
30892;SDS011;17595;50.884;4.346;2023-04-10T04:39:06;5.07;;;4.57;;
30892;SDS011;17595;50.884;4.346;2023-04-10T04:41:32;6.47;;;4.53;;
30892;SDS011;17595;50.884;4.346;2023-04-10T04:43:58;9.10;;;5.03;;
30892;SDS011;17595;50.884;4.346;2023-04-10T04:46:25;5.95;;;4.57;;
30892;SDS011;17595;50.884;4.346;2023-04-10T04:48:51;6.78;;;4.85;;
30892;SDS011;17595;50.884;4.346;2023-04-10T04:51:16;8.13;;;5.15;;
30892;SDS011;17595;50.884;4.346;2023-04-10T04:53:42;6.45;;;5.00;;
30892;SDS011;17595;50.884;4.346;2023-04-10T04:56:07;5.85;;;4.68;;
30892;SDS011;17595;50.884;4.346;2023-04-10T04:58:33;7.03;;;4.88;;
30892;SDS011;17595;50.884;4.346;2023-04-10T05:00:59;6.90;;;4.60;;
30892;SDS011;17595;50.884;4.346;2023-04-10T05:03:25;7.63;;;5.55;;
30892;SDS011;17595;50.884;4.346;2023-04-10T05:05:52;8.23;;;5.70;;
30892;SDS011;17595;50.884;4.346;2023-04-10T05:08:18;10.05;;;5.10;;
30892;SDS011;17595;50.884;4.346;2023-04-10T05:10:44;7.55;;;5.57;;
30892;SDS011;17595;50.884;4.346;2023-04-10T05:13:10;7.10;;;5.60;;
30892;SDS011;17595;50.884;4.346;2023-04-10T05:15:36;7.70;;;5.47;;
30892;SDS011;17595;50.884;4.346;2023-04-10T05:18:03;6.07;;;4.70;;
30892;SDS011;17595;50.884;4.346;2023-04-10T05:20:29;7.57;;;5.32;;
30892;SDS011;17595;50.884;4.346;2023-04-10T05:22:55;7.70;;;5.85;;
30892;SDS011;17595;50.884;4.346;2023-04-10T05:25:22;8.70;;;5.53;;
30892;SDS011;17595;50.884;4.346;2023-04-10T05:27:48;7.75;;;5.20;;
30892;SDS011;17595;50.884;4.346;2023-04-10T05:30:13;5.75;;;4.70;;
30892;SDS011;17595;50.884;4.346;2023-04-10T05:32:39;9.60;;;4.70;;
30892;SDS011;17595;50.884;4.346;2023-04-10T05:35:05;7.90;;;4.80;;
30892;SDS011;17595;50.884;4.346;2023-04-10T05:37:31;4.85;;;4.30;;
30892;SDS011;17595;50.884;4.346;2023-04-10T05:39:57;6.28;;;4.45;;
30892;SDS011;17595;50.884;4.346;2023-04-10T05:42:23;7.03;;;4.53;;
30892;SDS011;17595;50.884;4.346;2023-04-10T05:44:48;6.32;;;4.60;;
30892;SDS011;17595;50.884;4.346;2023-04-10T05:47:14;6.57;;;5.22;;
30892;SDS011;17595;50.884;4.346;2023-04-10T05:49:40;6.78;;;4.75;;
30892;SDS011;17595;50.884;4.346;2023-04-10T05:52:06;7.63;;;5.28;;
30892;SDS011;17595;50.884;4.346;2023-04-10T05:54:31;7.75;;;4.53;;
30892;SDS011;17595;50.884;4.346;2023-04-10T05:56:57;6.43;;;4.97;;
30892;SDS011;17595;50.884;4.346;2023-04-10T05:59:22;6.05;;;4.68;;
30892;SDS011;17595;50.884;4.346;2023-04-10T06:01:48;7.93;;;4.68;;
30892;SDS011;17595;50.884;4.346;2023-04-10T06:04:13;8.70;;;5.28;;
30892;SDS011;17595;50.884;4.346;2023-04-10T06:06:39;6.57;;;4.97;;
30892;SDS011;17595;50.884;4.346;2023-04-10T06:09:05;7.13;;;5.07;;
30892;SDS011;17595;50.884;4.346;2023-04-10T06:11:31;9.57;;;5.32;;
30892;SDS011;17595;50.884;4.346;2023-04-10T06:13:56;6.43;;;5.00;;
30892;SDS011;17595;50.884;4.346;2023-04-10T06:16:22;6.70;;;5.15;;
30892;SDS011;17595;50.884;4.346;2023-04-10T06:18:47;5.72;;;5.15;;
30892;SDS011;17595;50.884;4.346;2023-04-10T06:21:16;9.70;;;5.20;;
30892;SDS011;17595;50.884;4.346;2023-04-10T06:23:42;6.78;;;4.88;;
30892;SDS011;17595;50.884;4.346;2023-04-10T06:26:07;6.22;;;4.72;;
30892;SDS011;17595;50.884;4.346;2023-04-10T06:28:33;6.65;;;4.97;;
30892;SDS011;17595;50.884;4.346;2023-04-10T06:30:59;6.57;;;4.95;;
30892;SDS011;17595;50.884;4.346;2023-04-10T06:33:27;5.82;;;4.90;;
30892;SDS011;17595;50.884;4.346;2023-04-10T06:35:53;5.80;;;4.70;;
30892;SDS011;17595;50.884;4.346;2023-04-10T06:38:18;6.45;;;4.85;;
30892;SDS011;17595;50.884;4.346;2023-04-10T06:40:44;5.95;;;4.75;;
30892;SDS011;17595;50.884;4.346;2023-04-10T06:43:09;7.68;;;5.22;;
30892;SDS011;17595;50.884;4.346;2023-04-10T06:45:35;7.07;;;4.70;;
30892;SDS011;17595;50.884;4.346;2023-04-10T06:48:01;6.18;;;4.00;;
30892;SDS011;17595;50.884;4.346;2023-04-10T06:50:26;7.13;;;5.00;;
30892;SDS011;17595;50.884;4.346;2023-04-10T06:52:52;7.40;;;4.95;;
30892;SDS011;17595;50.884;4.346;2023-04-10T06:55:19;7.22;;;4.68;;
30892;SDS011;17595;50.884;4.346;2023-04-10T06:57:45;5.60;;;5.00;;
30892;SDS011;17595;50.884;4.346;2023-04-10T07:00:11;9.27;;;5.47;;
30892;SDS011;17595;50.884;4.346;2023-04-10T07:02:37;7.57;;;5.30;;
30892;SDS011;17595;50.884;4.346;2023-04-10T07:05:03;5.97;;;4.53;;
30892;SDS011;17595;50.884;4.346;2023-04-10T07:07:29;7.07;;;5.30;;
30892;SDS011;17595;50.884;4.346;2023-04-10T07:09:55;6.68;;;4.85;;
30892;SDS011;17595;50.884;4.346;2023-04-10T07:12:22;5.32;;;4.82;;
30892;SDS011;17595;50.884;4.346;2023-04-10T07:14:47;4.68;;;4.28;;
30892;SDS011;17595;50.884;4.346;2023-04-10T07:17:13;7.32;;;4.97;;
30892;SDS011;17595;50.884;4.346;2023-04-10T07:19:39;5.18;;;4.68;;
30892;SDS011;17595;50.884;4.346;2023-04-10T07:22:04;7.22;;;5.20;;
30892;SDS011;17595;50.884;4.346;2023-04-10T07:24:30;5.13;;;4.35;;
30892;SDS011;17595;50.884;4.346;2023-04-10T07:26:56;6.20;;;4.75;;
30892;SDS011;17595;50.884;4.346;2023-04-10T07:29:22;5.43;;;4.63;;
30892;SDS011;17595;50.884;4.346;2023-04-10T07:31:48;6.13;;;5.30;;
30892;SDS011;17595;50.884;4.346;2023-04-10T07:34:13;9.38;;;5.60;;
30892;SDS011;17595;50.884;4.346;2023-04-10T07:36:39;5.60;;;5.00;;
30892;SDS011;17595;50.884;4.346;2023-04-10T07:39:04;5.15;;;4.65;;
30892;SDS011;17595;50.884;4.346;2023-04-10T07:41:30;5.47;;;4.63;;
30892;SDS011;17595;50.884;4.346;2023-04-10T07:43:56;5.85;;;4.75;;
30892;SDS011;17595;50.884;4.346;2023-04-10T07:46:21;6.82;;;5.47;;
30892;SDS011;17595;50.884;4.346;2023-04-10T07:48:47;5.55;;;4.75;;
30892;SDS011;17595;50.884;4.346;2023-04-10T07:51:13;5.97;;;4.85;;
30892;SDS011;17595;50.884;4.346;2023-04-10T07:53:39;8.40;;;5.18;;
30892;SDS011;17595;50.884;4.346;2023-04-10T07:56:05;5.93;;;4.57;;
30892;SDS011;17595;50.884;4.346;2023-04-10T07:58:31;6.18;;;5.53;;
30892;SDS011;17595;50.884;4.346;2023-04-10T08:00:57;5.85;;;5.20;;
30892;SDS011;17595;50.884;4.346;2023-04-10T08:03:22;5.50;;;4.93;;
30892;SDS011;17595;50.884;4.346;2023-04-10T08:05:48;6.85;;;4.90;;
30892;SDS011;17595;50.884;4.346;2023-04-10T08:08:14;5.72;;;5.00;;
30892;SDS011;17595;50.884;4.346;2023-04-10T08:10:40;7.65;;;5.20;;
30892;SDS011;17595;50.884;4.346;2023-04-10T08:13:06;5.55;;;5.05;;
30892;SDS011;17595;50.884;4.346;2023-04-10T08:15:32;6.60;;;5.35;;
30892;SDS011;17595;50.884;4.346;2023-04-10T08:17:58;6.85;;;5.30;;
30892;SDS011;17595;50.884;4.346;2023-04-10T08:20:24;6.40;;;5.00;;
30892;SDS011;17595;50.884;4.346;2023-04-10T08:22:49;6.32;;;4.90;;
30892;SDS011;17595;50.884;4.346;2023-04-10T08:25:15;5.88;;;5.07;;
30892;SDS011;17595;50.884;4.346;2023-04-10T08:27:40;6.85;;;4.85;;
30892;SDS011;17595;50.884;4.346;2023-04-10T08:30:06;6.80;;;5.13;;
30892;SDS011;17595;50.884;4.346;2023-04-10T08:32:32;8.25;;;5.18;;
30892;SDS011;17595;50.884;4.346;2023-04-10T08:34:58;6.88;;;5.20;;
30892;SDS011;17595;50.884;4.346;2023-04-10T08:37:24;7.20;;;5.38;;
30892;SDS011;17595;50.884;4.346;2023-04-10T08:39:51;6.95;;;5.25;;
30892;SDS011;17595;50.884;4.346;2023-04-10T08:42:17;6.50;;;5.03;;
30892;SDS011;17595;50.884;4.346;2023-04-10T08:44:42;6.32;;;4.93;;
30892;SDS011;17595;50.884;4.346;2023-04-10T08:47:08;6.32;;;5.10;;
30892;SDS011;17595;50.884;4.346;2023-04-10T08:52:23;7.43;;;5.93;;
30892;SDS011;17595;50.884;4.346;2023-04-10T08:54:51;7.32;;;4.97;;
30892;SDS011;17595;50.884;4.346;2023-04-10T08:57:18;9.60;;;5.38;;
30892;SDS011;17595;50.884;4.346;2023-04-10T08:59:46;7.72;;;5.13;;
30892;SDS011;17595;50.884;4.346;2023-04-10T09:02:13;7.85;;;4.85;;
30892;SDS011;17595;50.884;4.346;2023-04-10T09:04:39;7.72;;;5.75;;
30892;SDS011;17595;50.884;4.346;2023-04-10T09:07:11;9.07;;;5.43;;
30892;SDS011;17595;50.884;4.346;2023-04-10T09:09:37;7.53;;;5.38;;
30892;SDS011;17595;50.884;4.346;2023-04-10T09:12:03;7.00;;;4.95;;
30892;SDS011;17595;50.884;4.346;2023-04-10T09:14:31;7.65;;;5.45;;
30892;SDS011;17595;50.884;4.346;2023-04-10T09:19:44;7.32;;;5.25;;
30892;SDS011;17595;50.884;4.346;2023-04-10T09:22:12;6.53;;;5.07;;
30892;SDS011;17595;50.884;4.346;2023-04-10T09:24:39;7.88;;;5.47;;
30892;SDS011;17595;50.884;4.346;2023-04-10T09:27:08;7.35;;;5.07;;
30892;SDS011;17595;50.884;4.346;2023-04-10T09:29:38;9.55;;;4.90;;
30892;SDS011;17595;50.884;4.346;2023-04-10T09:32:08;6.85;;;5.40;;
30892;SDS011;17595;50.884;4.346;2023-04-10T09:34:35;6.97;;;5.18;;
30892;SDS011;17595;50.884;4.346;2023-04-10T09:37:21;9.27;;;5.47;;
30892;SDS011;17595;50.884;4.346;2023-04-10T09:39:47;6.03;;;4.65;;
30892;SDS011;17595;50.884;4.346;2023-04-10T09:42:13;7.70;;;5.47;;
30892;SDS011;17595;50.884;4.346;2023-04-10T09:44:39;5.80;;;4.78;;
30892;SDS011;17595;50.884;4.346;2023-04-10T09:47:16;7.57;;;5.35;;
30892;SDS011;17595;50.884;4.346;2023-04-10T09:49:45;6.93;;;5.28;;
30892;SDS011;17595;50.884;4.346;2023-04-10T09:52:19;8.48;;;5.05;;
30892;SDS011;17595;50.884;4.346;2023-04-10T09:54:50;5.78;;;4.50;;
30892;SDS011;17595;50.884;4.346;2023-04-10T09:57:18;5.85;;;5.07;;
30892;SDS011;17595;50.884;4.346;2023-04-10T09:59:47;5.32;;;4.22;;
30892;SDS011;17595;50.884;4.346;2023-04-10T10:02:23;4.88;;;4.07;;
30892;SDS011;17595;50.884;4.346;2023-04-10T10:04:52;8.55;;;5.07;;
30892;SDS011;17595;50.884;4.346;2023-04-10T10:07:19;5.40;;;4.32;;
30892;SDS011;17595;50.884;4.346;2023-04-10T10:09:45;6.45;;;4.50;;
30892;SDS011;17595;50.884;4.346;2023-04-10T10:12:13;5.10;;;4.45;;
30892;SDS011;17595;50.884;4.346;2023-04-10T10:17:36;6.53;;;4.00;;
30892;SDS011;17595;50.884;4.346;2023-04-10T10:20:08;4.53;;;3.72;;
30892;SDS011;17595;50.884;4.346;2023-04-10T10:22:35;4.57;;;3.72;;
30892;SDS011;17595;50.884;4.346;2023-04-10T10:25:02;5.35;;;3.72;;
30892;SDS011;17595;50.884;4.346;2023-04-10T10:27:30;6.28;;;3.83;;
30892;SDS011;17595;50.884;4.346;2023-04-10T10:29:58;4.15;;;3.75;;
30892;SDS011;17595;50.884;4.346;2023-04-10T10:32:25;4.40;;;4.00;;
30892;SDS011;17595;50.884;4.346;2023-04-10T10:34:52;5.72;;;3.70;;
30892;SDS011;17595;50.884;4.346;2023-04-10T10:37:18;3.97;;;3.67;;
30892;SDS011;17595;50.884;4.346;2023-04-10T10:40:08;4.18;;;3.78;;
30892;SDS011;17595;50.884;4.346;2023-04-10T10:42:36;12.48;;;9.77;;
30892;SDS011;17595;50.884;4.346;2023-04-10T10:45:14;4.82;;;4.25;;
30892;SDS011;17595;50.884;4.346;2023-04-10T10:47:50;9.13;;;7.53;;
30892;SDS011;17595;50.884;4.346;2023-04-10T10:50:17;8.60;;;6.78;;
30892;SDS011;17595;50.884;4.346;2023-04-10T10:52:43;17.08;;;10.18;;
30892;SDS011;17595;50.884;4.346;2023-04-10T10:57:48;5.53;;;4.97;;
30892;SDS011;17595;50.884;4.346;2023-04-10T11:00:22;3.85;;;3.47;;
30892;SDS011;17595;50.884;4.346;2023-04-10T11:08:34;10.77;;;4.85;;
30892;SDS011;17595;50.884;4.346;2023-04-10T11:13:31;6.72;;;5.07;;
30892;SDS011;17595;50.884;4.346;2023-04-10T11:15:58;3.92;;;3.58;;
30892;SDS011;17595;50.884;4.346;2023-04-10T11:21:10;5.25;;;4.10;;
30892;SDS011;17595;50.884;4.346;2023-04-10T11:29:02;5.18;;;3.60;;
30892;SDS011;17595;50.884;4.346;2023-04-10T11:31:44;7.95;;;7.03;;
30892;SDS011;17595;50.884;4.346;2023-04-10T11:34:10;8.25;;;6.82;;
30892;SDS011;17595;50.884;4.346;2023-04-10T11:36:41;7.63;;;5.25;;
30892;SDS011;17595;50.884;4.346;2023-04-10T11:39:11;8.85;;;7.90;;
30892;SDS011;17595;50.884;4.346;2023-04-10T11:41:39;7.70;;;5.07;;
30892;SDS011;17595;50.884;4.346;2023-04-10T11:44:11;13.70;;;7.03;;
30892;SDS011;17595;50.884;4.346;2023-04-10T11:46:38;10.00;;;5.88;;
30892;SDS011;17595;50.884;4.346;2023-04-10T11:49:06;7.65;;;5.22;;
30892;SDS011;17595;50.884;4.346;2023-04-10T11:51:33;4.50;;;3.67;;
30892;SDS011;17595;50.884;4.346;2023-04-10T11:56:31;4.47;;;4.00;;
30892;SDS011;17595;50.884;4.346;2023-04-10T11:58:56;5.10;;;4.60;;
30892;SDS011;17595;50.884;4.346;2023-04-10T12:01:22;7.05;;;4.20;;
30892;SDS011;17595;50.884;4.346;2023-04-10T12:03:48;5.03;;;3.85;;
30892;SDS011;17595;50.884;4.346;2023-04-10T12:06:14;4.50;;;3.80;;
30892;SDS011;17595;50.884;4.346;2023-04-10T12:08:45;8.15;;;7.32;;
30892;SDS011;17595;50.884;4.346;2023-04-10T12:11:13;6.57;;;4.90;;
30892;SDS011;17595;50.884;4.346;2023-04-10T12:13:42;7.28;;;5.80;;
30892;SDS011;17595;50.884;4.346;2023-04-10T12:16:08;6.80;;;5.63;;
30892;SDS011;17595;50.884;4.346;2023-04-10T12:18:34;8.75;;;5.55;;
30892;SDS011;17595;50.884;4.346;2023-04-10T12:21:00;10.75;;;6.68;;
30892;SDS011;17595;50.884;4.346;2023-04-10T12:23:27;6.78;;;5.15;;
30892;SDS011;17595;50.884;4.346;2023-04-10T12:26:05;4.97;;;4.45;;
30892;SDS011;17595;50.884;4.346;2023-04-10T12:28:41;3.50;;;2.63;;
30892;SDS011;17595;50.884;4.346;2023-04-10T12:31:14;2.90;;;2.65;;
30892;SDS011;17595;50.884;4.346;2023-04-10T12:33:44;3.28;;;2.63;;
30892;SDS011;17595;50.884;4.346;2023-04-10T12:36:20;4.15;;;2.58;;
30892;SDS011;17595;50.884;4.346;2023-04-10T12:38:47;6.68;;;3.15;;
30892;SDS011;17595;50.884;4.346;2023-04-10T12:41:13;6.72;;;3.33;;
30892;SDS011;17595;50.884;4.346;2023-04-10T12:43:46;4.85;;;3.08;;
30892;SDS011;17595;50.884;4.346;2023-04-10T12:46:21;7.45;;;3.33;;
30892;SDS011;17595;50.884;4.346;2023-04-10T12:48:50;6.45;;;4.45;;
30892;SDS011;17595;50.884;4.346;2023-04-10T12:51:16;4.97;;;4.18;;
30892;SDS011;17595;50.884;4.346;2023-04-10T12:53:42;4.45;;;3.92;;
30892;SDS011;17595;50.884;4.346;2023-04-10T12:56:09;4.28;;;3.53;;
30892;SDS011;17595;50.884;4.346;2023-04-10T12:58:36;4.85;;;3.58;;
30892;SDS011;17595;50.884;4.346;2023-04-10T13:01:06;5.55;;;3.03;;
30892;SDS011;17595;50.884;4.346;2023-04-10T13:03:33;4.53;;;3.28;;
30892;SDS011;17595;50.884;4.346;2023-04-10T13:06:00;3.58;;;3.28;;
30892;SDS011;17595;50.884;4.346;2023-04-10T13:08:26;4.90;;;3.78;;
30892;SDS011;17595;50.884;4.346;2023-04-10T13:13:26;9.13;;;4.20;;
30892;SDS011;17595;50.884;4.346;2023-04-10T13:15:53;4.03;;;3.38;;
30892;SDS011;17595;50.884;4.346;2023-04-10T13:18:19;3.72;;;3.28;;
30892;SDS011;17595;50.884;4.346;2023-04-10T13:20:45;5.40;;;3.40;;
30892;SDS011;17595;50.884;4.346;2023-04-10T13:23:11;4.05;;;3.65;;
30892;SDS011;17595;50.884;4.346;2023-04-10T13:25:37;4.28;;;3.22;;
30892;SDS011;17595;50.884;4.346;2023-04-10T13:28:03;5.20;;;3.15;;
30892;SDS011;17595;50.884;4.346;2023-04-10T13:30:34;4.75;;;3.72;;
30892;SDS011;17595;50.884;4.346;2023-04-10T13:33:00;6.15;;;4.82;;
30892;SDS011;17595;50.884;4.346;2023-04-10T13:35:26;10.85;;;8.63;;
30892;SDS011;17595;50.884;4.346;2023-04-10T13:37:52;7.90;;;7.07;;
30892;SDS011;17595;50.884;4.346;2023-04-10T13:40:18;13.95;;;11.50;;
30892;SDS011;17595;50.884;4.346;2023-04-10T13:42:45;18.83;;;15.73;;
30892;SDS011;17595;50.884;4.346;2023-04-10T13:45:12;12.60;;;8.05;;
30892;SDS011;17595;50.884;4.346;2023-04-10T13:47:37;5.97;;;4.97;;
30892;SDS011;17595;50.884;4.346;2023-04-10T13:50:03;11.32;;;7.80;;
30892;SDS011;17595;50.884;4.346;2023-04-10T13:52:29;4.05;;;3.65;;
30892;SDS011;17595;50.884;4.346;2023-04-10T13:54:55;6.45;;;5.80;;
30892;SDS011;17595;50.884;4.346;2023-04-10T13:57:20;10.38;;;6.38;;
30892;SDS011;17595;50.884;4.346;2023-04-10T13:59:46;9.38;;;7.22;;
30892;SDS011;17595;50.884;4.346;2023-04-10T14:02:11;10.05;;;8.30;;
30892;SDS011;17595;50.884;4.346;2023-04-10T14:04:37;7.18;;;6.40;;
30892;SDS011;17595;50.884;4.346;2023-04-10T14:07:02;10.15;;;8.40;;
30892;SDS011;17595;50.884;4.346;2023-04-10T14:09:28;6.45;;;5.13;;
30892;SDS011;17595;50.884;4.346;2023-04-10T14:11:54;3.38;;;3.08;;
30892;SDS011;17595;50.884;4.346;2023-04-10T14:14:20;3.92;;;3.30;;
30892;SDS011;17595;50.884;4.346;2023-04-10T14:16:49;4.30;;;3.72;;
30892;SDS011;17595;50.884;4.346;2023-04-10T14:19:15;4.00;;;3.15;;
30892;SDS011;17595;50.884;4.346;2023-04-10T14:21:40;4.90;;;2.90;;
30892;SDS011;17595;50.884;4.346;2023-04-10T14:24:08;5.97;;;2.83;;
30892;SDS011;17595;50.884;4.346;2023-04-10T14:26:34;3.22;;;2.80;;
30892;SDS011;17595;50.884;4.346;2023-04-10T14:29:00;4.75;;;2.88;;
30892;SDS011;17595;50.884;4.346;2023-04-10T14:31:25;5.45;;;3.10;;
30892;SDS011;17595;50.884;4.346;2023-04-10T14:33:51;3.58;;;3.03;;
30892;SDS011;17595;50.884;4.346;2023-04-10T14:36:17;4.45;;;3.08;;
30892;SDS011;17595;50.884;4.346;2023-04-10T14:38:43;4.55;;;3.40;;
30892;SDS011;17595;50.884;4.346;2023-04-10T14:41:08;3.60;;;2.60;;
30892;SDS011;17595;50.884;4.346;2023-04-10T14:43:35;8.57;;;2.78;;
30892;SDS011;17595;50.884;4.346;2023-04-10T14:46:01;5.18;;;2.88;;
30892;SDS011;17595;50.884;4.346;2023-04-10T14:48:27;2.97;;;2.25;;
30892;SDS011;17595;50.884;4.346;2023-04-10T14:50:52;4.22;;;2.40;;
30892;SDS011;17595;50.884;4.346;2023-04-10T14:53:28;2.15;;;1.95;;
30892;SDS011;17595;50.884;4.346;2023-04-10T14:55:54;3.67;;;2.35;;
30892;SDS011;17595;50.884;4.346;2023-04-10T14:58:19;2.92;;;2.45;;
30892;SDS011;17595;50.884;4.346;2023-04-10T15:00:45;3.10;;;2.13;;
30892;SDS011;17595;50.884;4.346;2023-04-10T15:03:11;3.08;;;2.25;;
30892;SDS011;17595;50.884;4.346;2023-04-10T15:05:36;2.63;;;2.10;;
30892;SDS011;17595;50.884;4.346;2023-04-10T15:08:02;4.00;;;2.17;;
30892;SDS011;17595;50.884;4.346;2023-04-10T15:10:28;2.30;;;2.10;;
30892;SDS011;17595;50.884;4.346;2023-04-10T15:12:57;3.83;;;2.55;;
30892;SDS011;17595;50.884;4.346;2023-04-10T15:15:23;4.65;;;2.42;;
30892;SDS011;17595;50.884;4.346;2023-04-10T15:17:49;6.90;;;2.70;;
30892;SDS011;17595;50.884;4.346;2023-04-10T15:20:14;5.18;;;2.60;;
30892;SDS011;17595;50.884;4.346;2023-04-10T15:22:40;5.35;;;2.45;;
30892;SDS011;17595;50.884;4.346;2023-04-10T15:25:09;3.35;;;2.80;;
30892;SDS011;17595;50.884;4.346;2023-04-10T15:27:37;5.83;;;2.80;;
30892;SDS011;17595;50.884;4.346;2023-04-10T15:30:03;3.13;;;2.63;;
30892;SDS011;17595;50.884;4.346;2023-04-10T15:32:29;5.97;;;3.08;;
30892;SDS011;17595;50.884;4.346;2023-04-10T15:34:55;5.15;;;3.38;;
30892;SDS011;17595;50.884;4.346;2023-04-10T15:37:20;6.05;;;4.03;;